sensor_id;sensor_type;location;lat;lon;timestamp;temperature;humidity
24224;DHT22;12359;49.716;9.212;2023-06-10T00:02:08;15.80;13.30
24224;DHT22;12359;49.716;9.212;2023-06-10T00:04:34;15.80;10.90
24224;DHT22;12359;49.716;9.212;2023-06-10T00:07:03;15.70;15.50
24224;DHT22;12359;49.716;9.212;2023-06-10T00:09:29;15.70;17.90
24224;DHT22;12359;49.716;9.212;2023-06-10T00:11:55;15.70;13.70
24224;DHT22;12359;49.716;9.212;2023-06-10T00:14:20;15.70;12.70
24224;DHT22;12359;49.716;9.212;2023-06-10T00:16:46;15.70;10.70
24224;DHT22;12359;49.716;9.212;2023-06-10T00:19:12;15.70;8.20
24224;DHT22;12359;49.716;9.212;2023-06-10T00:21:39;15.70;8.80
24224;DHT22;12359;49.716;9.212;2023-06-10T00:24:11;15.60;9.20
24224;DHT22;12359;49.716;9.212;2023-06-10T00:26:40;15.60;12.80
24224;DHT22;12359;49.716;9.212;2023-06-10T00:29:06;15.60;12.80
24224;DHT22;12359;49.716;9.212;2023-06-10T00:31:33;15.60;12.40
24224;DHT22;12359;49.716;9.212;2023-06-10T00:33:59;15.50;12.20
24224;DHT22;12359;49.716;9.212;2023-06-10T00:36:25;15.50;14.00
24224;DHT22;12359;49.716;9.212;2023-06-10T00:38:51;15.40;20.00
24224;DHT22;12359;49.716;9.212;2023-06-10T00:41:16;15.40;19.70
24224;DHT22;12359;49.716;9.212;2023-06-10T00:43:42;15.40;18.70
24224;DHT22;12359;49.716;9.212;2023-06-10T00:46:08;15.30;20.40
24224;DHT22;12359;49.716;9.212;2023-06-10T00:48:34;15.30;19.20
24224;DHT22;12359;49.716;9.212;2023-06-10T00:51:00;15.30;17.80
24224;DHT22;12359;49.716;9.212;2023-06-10T00:53:26;15.30;16.50
24224;DHT22;12359;49.716;9.212;2023-06-10T00:55:53;15.20;18.50
24224;DHT22;12359;49.716;9.212;2023-06-10T00:58:19;15.20;18.10
24224;DHT22;12359;49.716;9.212;2023-06-10T01:00:44;15.20;18.30
24224;DHT22;12359;49.716;9.212;2023-06-10T01:03:13;15.20;20.70
24224;DHT22;12359;49.716;9.212;2023-06-10T01:05:39;15.10;22.00
24224;DHT22;12359;49.716;9.212;2023-06-10T01:08:19;15.10;23.60
24224;DHT22;12359;49.716;9.212;2023-06-10T01:10:54;15.00;26.80
24224;DHT22;12359;49.716;9.212;2023-06-10T01:13:24;14.80;31.00
24224;DHT22;12359;49.716;9.212;2023-06-10T01:15:57;14.80;33.30
24224;DHT22;12359;49.716;9.212;2023-06-10T01:18:23;14.70;38.60
24224;DHT22;12359;49.716;9.212;2023-06-10T01:20:56;14.60;45.80
24224;DHT22;12359;49.716;9.212;2023-06-10T01:23:22;14.50;49.00
24224;DHT22;12359;49.716;9.212;2023-06-10T01:25:55;14.60;47.60
24224;DHT22;12359;49.716;9.212;2023-06-10T01:28:31;14.60;44.00
24224;DHT22;12359;49.716;9.212;2023-06-10T01:33:27;14.50;47.70
24224;DHT22;12359;49.716;9.212;2023-06-10T01:35:53;14.60;47.20
24224;DHT22;12359;49.716;9.212;2023-06-10T01:38:21;14.60;46.20
24224;DHT22;12359;49.716;9.212;2023-06-10T01:40:49;14.60;42.20
24224;DHT22;12359;49.716;9.212;2023-06-10T01:43:15;14.60;42.30
24224;DHT22;12359;49.716;9.212;2023-06-10T01:45:40;14.60;41.80
24224;DHT22;12359;49.716;9.212;2023-06-10T01:48:06;14.50;44.20
24224;DHT22;12359;49.716;9.212;2023-06-10T01:50:32;14.40;42.90
24224;DHT22;12359;49.716;9.212;2023-06-10T01:52:59;14.30;45.30
24224;DHT22;12359;49.716;9.212;2023-06-10T01:55:24;14.30;47.00
24224;DHT22;12359;49.716;9.212;2023-06-10T01:57:50;14.30;49.00
24224;DHT22;12359;49.716;9.212;2023-06-10T02:00:17;14.30;49.80
24224;DHT22;12359;49.716;9.212;2023-06-10T02:02:43;14.20;52.60
24224;DHT22;12359;49.716;9.212;2023-06-10T02:05:08;14.20;55.00
24224;DHT22;12359;49.716;9.212;2023-06-10T02:07:34;14.10;53.40
24224;DHT22;12359;49.716;9.212;2023-06-10T02:10:00;14.10;54.10
24224;DHT22;12359;49.716;9.212;2023-06-10T02:12:25;14.00;55.70
24224;DHT22;12359;49.716;9.212;2023-06-10T02:14:51;13.90;55.80
24224;DHT22;12359;49.716;9.212;2023-06-10T02:17:17;13.80;62.70
24224;DHT22;12359;49.716;9.212;2023-06-10T02:19:43;13.80;61.60
24224;DHT22;12359;49.716;9.212;2023-06-10T02:22:09;13.80;66.20
24224;DHT22;12359;49.716;9.212;2023-06-10T02:24:36;13.80;67.50
24224;DHT22;12359;49.716;9.212;2023-06-10T02:27:04;13.70;67.40
24224;DHT22;12359;49.716;9.212;2023-06-10T02:29:33;13.70;65.80
24224;DHT22;12359;49.716;9.212;2023-06-10T02:31:59;13.70;66.80
24224;DHT22;12359;49.716;9.212;2023-06-10T02:34:24;13.70;67.80
24224;DHT22;12359;49.716;9.212;2023-06-10T02:36:50;13.80;65.20
24224;DHT22;12359;49.716;9.212;2023-06-10T02:39:16;13.70;65.00
24224;DHT22;12359;49.716;9.212;2023-06-10T02:41:42;13.70;69.50
24224;DHT22;12359;49.716;9.212;2023-06-10T02:44:08;13.70;70.10
24224;DHT22;12359;49.716;9.212;2023-06-10T02:46:33;13.60;69.00
24224;DHT22;12359;49.716;9.212;2023-06-10T02:48:59;13.70;68.20
24224;DHT22;12359;49.716;9.212;2023-06-10T02:51:25;13.70;65.90
24224;DHT22;12359;49.716;9.212;2023-06-10T02:53:50;13.70;62.80
24224;DHT22;12359;49.716;9.212;2023-06-10T02:56:17;13.70;63.00
24224;DHT22;12359;49.716;9.212;2023-06-10T02:58:42;13.60;62.60
24224;DHT22;12359;49.716;9.212;2023-06-10T03:01:08;13.60;66.60
24224;DHT22;12359;49.716;9.212;2023-06-10T03:03:35;13.60;66.50
24224;DHT22;12359;49.716;9.212;2023-06-10T03:06:02;13.50;64.40
24224;DHT22;12359;49.716;9.212;2023-06-10T03:08:28;13.50;63.00
24224;DHT22;12359;49.716;9.212;2023-06-10T03:10:54;13.50;64.30
24224;DHT22;12359;49.716;9.212;2023-06-10T03:13:19;13.50;64.30
24224;DHT22;12359;49.716;9.212;2023-06-10T03:15:46;13.50;63.50
24224;DHT22;12359;49.716;9.212;2023-06-10T03:18:12;13.50;58.30
24224;DHT22;12359;49.716;9.212;2023-06-10T03:20:37;13.40;63.70
24224;DHT22;12359;49.716;9.212;2023-06-10T03:23:05;13.40;63.20
24224;DHT22;12359;49.716;9.212;2023-06-10T03:25:34;13.40;65.60
24224;DHT22;12359;49.716;9.212;2023-06-10T03:27:59;13.30;68.90
24224;DHT22;12359;49.716;9.212;2023-06-10T03:30:25;13.30;71.20
24224;DHT22;12359;49.716;9.212;2023-06-10T03:32:51;13.30;69.10
24224;DHT22;12359;49.716;9.212;2023-06-10T03:35:17;13.30;70.10
24224;DHT22;12359;49.716;9.212;2023-06-10T03:37:43;13.30;69.60
24224;DHT22;12359;49.716;9.212;2023-06-10T03:40:08;13.40;69.10
24224;DHT22;12359;49.716;9.212;2023-06-10T03:42:34;13.40;68.50
24224;DHT22;12359;49.716;9.212;2023-06-10T03:45:01;13.40;67.20
24224;DHT22;12359;49.716;9.212;2023-06-10T03:47:29;13.40;67.80
24224;DHT22;12359;49.716;9.212;2023-06-10T03:49:58;13.40;69.30
24224;DHT22;12359;49.716;9.212;2023-06-10T03:52:24;13.30;70.90
24224;DHT22;12359;49.716;9.212;2023-06-10T03:54:49;13.30;71.60
24224;DHT22;12359;49.716;9.212;2023-06-10T03:57:15;13.30;68.50
24224;DHT22;12359;49.716;9.212;2023-06-10T03:59:41;13.30;71.60
24224;DHT22;12359;49.716;9.212;2023-06-10T04:02:07;13.20;71.50
24224;DHT22;12359;49.716;9.212;2023-06-10T04:04:34;13.20;72.00
24224;DHT22;12359;49.716;9.212;2023-06-10T04:07:00;13.20;72.70
24224;DHT22;12359;49.716;9.212;2023-06-10T04:09:25;13.30;73.20
24224;DHT22;12359;49.716;9.212;2023-06-10T04:11:51;13.40;72.20
24224;DHT22;12359;49.716;9.212;2023-06-10T04:14:17;13.40;71.70
24224;DHT22;12359;49.716;9.212;2023-06-10T04:16:42;13.50;71.30
24224;DHT22;12359;49.716;9.212;2023-06-10T04:19:08;13.50;69.20
24224;DHT22;12359;49.716;9.212;2023-06-10T04:21:34;13.70;64.90
24224;DHT22;12359;49.716;9.212;2023-06-10T04:24:01;13.60;62.00
24224;DHT22;12359;49.716;9.212;2023-06-10T04:26:27;13.80;61.50
24224;DHT22;12359;49.716;9.212;2023-06-10T04:28:53;13.80;59.50
24224;DHT22;12359;49.716;9.212;2023-06-10T04:31:19;13.80;58.70
24224;DHT22;12359;49.716;9.212;2023-06-10T04:33:44;13.90;58.20
24224;DHT22;12359;49.716;9.212;2023-06-10T04:36:10;14.00;56.20
24224;DHT22;12359;49.716;9.212;2023-06-10T04:38:36;14.10;53.00
24224;DHT22;12359;49.716;9.212;2023-06-10T04:41:02;14.30;49.60
24224;DHT22;12359;49.716;9.212;2023-06-10T04:43:28;14.40;44.80
24224;DHT22;12359;49.716;9.212;2023-06-10T04:45:55;14.40;42.40
24224;DHT22;12359;49.716;9.212;2023-06-10T04:48:21;14.50;38.30
24224;DHT22;12359;49.716;9.212;2023-06-10T04:50:46;14.50;34.90
24224;DHT22;12359;49.716;9.212;2023-06-10T04:53:12;14.60;36.50
24224;DHT22;12359;49.716;9.212;2023-06-10T04:55:38;14.70;36.60
24224;DHT22;12359;49.716;9.212;2023-06-10T04:58:03;14.70;32.00
24224;DHT22;12359;49.716;9.212;2023-06-10T05:00:29;14.80;30.10
24224;DHT22;12359;49.716;9.212;2023-06-10T05:02:55;14.90;28.90
24224;DHT22;12359;49.716;9.212;2023-06-10T05:05:21;15.00;27.40
24224;DHT22;12359;49.716;9.212;2023-06-10T05:07:47;15.00;23.90
24224;DHT22;12359;49.716;9.212;2023-06-10T05:10:13;15.10;19.10
24224;DHT22;12359;49.716;9.212;2023-06-10T05:12:39;15.20;14.40
24224;DHT22;12359;49.716;9.212;2023-06-10T05:15:06;15.40;12.40
24224;DHT22;12359;49.716;9.212;2023-06-10T05:17:32;15.50;6.20
24224;DHT22;12359;49.716;9.212;2023-06-10T05:19:58;15.50;1.60
24224;DHT22;12359;49.716;9.212;2023-06-10T05:22:23;15.60;1.00
24224;DHT22;12359;49.716;9.212;2023-06-10T05:24:50;15.70;1.00
24224;DHT22;12359;49.716;9.212;2023-06-10T05:27:16;15.80;1.00
24224;DHT22;12359;49.716;9.212;2023-06-10T05:29:42;16.10;1.00
24224;DHT22;12359;49.716;9.212;2023-06-10T05:32:08;16.30;1.00
24224;DHT22;12359;49.716;9.212;2023-06-10T05:34:34;16.50;1.00
24224;DHT22;12359;49.716;9.212;2023-06-10T05:36:59;16.70;1.00
24224;DHT22;12359;49.716;9.212;2023-06-10T05:39:25;16.80;1.00
24224;DHT22;12359;49.716;9.212;2023-06-10T05:41:51;17.00;1.00
24224;DHT22;12359;49.716;9.212;2023-06-10T05:44:16;17.10;1.00
24224;DHT22;12359;49.716;9.212;2023-06-10T05:46:42;17.40;1.00
24224;DHT22;12359;49.716;9.212;2023-06-10T05:49:08;17.30;99.90
24224;DHT22;12359;49.716;9.212;2023-06-10T05:51:33;17.50;99.90
24224;DHT22;12359;49.716;9.212;2023-06-10T05:53:59;17.60;99.90
24224;DHT22;12359;49.716;9.212;2023-06-10T05:56:25;17.90;99.90
24224;DHT22;12359;49.716;9.212;2023-06-10T05:58:51;18.10;99.90
24224;DHT22;12359;49.716;9.212;2023-06-10T06:01:16;18.30;65.90
24224;DHT22;12359;49.716;9.212;2023-06-10T06:03:42;18.10;55.00
24224;DHT22;12359;49.716;9.212;2023-06-10T06:06:08;18.10;99.90
24224;DHT22;12359;49.716;9.212;2023-06-10T06:08:33;18.00;99.90
24224;DHT22;12359;49.716;9.212;2023-06-10T06:10:59;18.00;99.90
24224;DHT22;12359;49.716;9.212;2023-06-10T06:13:25;18.20;99.90
24224;DHT22;12359;49.716;9.212;2023-06-10T06:15:50;18.30;82.40
24224;DHT22;12359;49.716;9.212;2023-06-10T06:18:16;18.60;1.00
24224;DHT22;12359;49.716;9.212;2023-06-10T06:20:43;18.70;1.00
24224;DHT22;12359;49.716;9.212;2023-06-10T06:23:09;19.00;1.00
24224;DHT22;12359;49.716;9.212;2023-06-10T06:25:36;19.40;99.90
24224;DHT22;12359;49.716;9.212;2023-06-10T06:28:07;20.00;8.20
24224;DHT22;12359;49.716;9.212;2023-06-10T06:30:35;20.40;1.00
24224;DHT22;12359;49.716;9.212;2023-06-10T06:33:01;20.90;1.00
24224;DHT22;12359;49.716;9.212;2023-06-10T06:35:26;21.50;14.30
24224;DHT22;12359;49.716;9.212;2023-06-10T06:37:52;22.00;99.90
24224;DHT22;12359;49.716;9.212;2023-06-10T06:40:18;22.70;1.00
24224;DHT22;12359;49.716;9.212;2023-06-10T06:42:44;23.30;1.00
24224;DHT22;12359;49.716;9.212;2023-06-10T06:45:10;23.60;99.90
24224;DHT22;12359;49.716;9.212;2023-06-10T06:47:35;24.30;26.40
24224;DHT22;12359;49.716;9.212;2023-06-10T06:50:01;24.50;1.00
24224;DHT22;12359;49.716;9.212;2023-06-10T06:52:28;24.90;99.90
24224;DHT22;12359;49.716;9.212;2023-06-10T06:54:53;25.70;99.90
24224;DHT22;12359;49.716;9.212;2023-06-10T06:57:19;26.00;99.90
24224;DHT22;12359;49.716;9.212;2023-06-10T06:59:45;26.30;99.90
24224;DHT22;12359;49.716;9.212;2023-06-10T07:02:10;26.30;95.90
24224;DHT22;12359;49.716;9.212;2023-06-10T07:04:36;26.50;70.60
24224;DHT22;12359;49.716;9.212;2023-06-10T07:07:02;26.50;47.80
24224;DHT22;12359;49.716;9.212;2023-06-10T07:09:28;27.10;7.70
24224;DHT22;12359;49.716;9.212;2023-06-10T07:11:53;27.50;1.00
24224;DHT22;12359;49.716;9.212;2023-06-10T07:14:19;27.80;1.00
24224;DHT22;12359;49.716;9.212;2023-06-10T07:16:45;28.40;1.00
24224;DHT22;12359;49.716;9.212;2023-06-10T07:19:11;28.80;1.00
24224;DHT22;12359;49.716;9.212;2023-06-10T07:21:37;29.10;1.00
24224;DHT22;12359;49.716;9.212;2023-06-10T07:24:03;28.70;1.00
24224;DHT22;12359;49.716;9.212;2023-06-10T07:26:29;28.70;1.00
24224;DHT22;12359;49.716;9.212;2023-06-10T07:28:55;29.30;1.00
24224;DHT22;12359;49.716;9.212;2023-06-10T07:31:21;29.90;1.00
24224;DHT22;12359;49.716;9.212;2023-06-10T07:33:47;30.40;1.00
24224;DHT22;12359;49.716;9.212;2023-06-10T07:36:12;30.10;1.00
24224;DHT22;12359;49.716;9.212;2023-06-10T07:38:38;30.10;1.00
24224;DHT22;12359;49.716;9.212;2023-06-10T07:41:04;30.00;1.00
24224;DHT22;12359;49.716;9.212;2023-06-10T07:43:30;30.00;1.00
24224;DHT22;12359;49.716;9.212;2023-06-10T07:45:55;29.40;1.00
24224;DHT22;12359;49.716;9.212;2023-06-10T07:48:21;30.00;1.00
24224;DHT22;12359;49.716;9.212;2023-06-10T07:50:47;30.20;1.00
24224;DHT22;12359;49.716;9.212;2023-06-10T07:53:12;30.30;1.00
24224;DHT22;12359;49.716;9.212;2023-06-10T07:55:38;30.40;1.00
24224;DHT22;12359;49.716;9.212;2023-06-10T07:58:04;30.60;1.00
24224;DHT22;12359;49.716;9.212;2023-06-10T08:00:29;30.70;1.00
24224;DHT22;12359;49.716;9.212;2023-06-10T08:02:55;30.70;1.00
24224;DHT22;12359;49.716;9.212;2023-06-10T08:05:21;31.00;1.00
24224;DHT22;12359;49.716;9.212;2023-06-10T08:07:47;31.10;1.00
24224;DHT22;12359;49.716;9.212;2023-06-10T08:10:12;31.20;1.00
24224;DHT22;12359;49.716;9.212;2023-06-10T08:12:38;30.80;1.00
24224;DHT22;12359;49.716;9.212;2023-06-10T08:15:04;30.30;1.00
24224;DHT22;12359;49.716;9.212;2023-06-10T08:27:40;30.10;99.90
24224;DHT22;12359;49.716;9.212;2023-06-10T08:30:06;29.90;1.00
24224;DHT22;12359;49.716;9.212;2023-06-10T08:32:33;30.10;1.00
24224;DHT22;12359;49.716;9.212;2023-06-10T08:34:58;30.40;1.00
24224;DHT22;12359;49.716;9.212;2023-06-10T08:37:24;30.80;1.00
24224;DHT22;12359;49.716;9.212;2023-06-10T08:39:50;30.70;99.90
24224;DHT22;12359;49.716;9.212;2023-06-10T08:42:33;31.10;1.00
24224;DHT22;12359;49.716;9.212;2023-06-10T08:45:01;31.40;99.90
24224;DHT22;12359;49.716;9.212;2023-06-10T08:47:29;31.30;99.90
24224;DHT22;12359;49.716;9.212;2023-06-10T08:49:57;31.40;99.90
24224;DHT22;12359;49.716;9.212;2023-06-10T08:52:33;32.00;99.90
24224;DHT22;12359;49.716;9.212;2023-06-10T08:58:03;32.00;99.90
24224;DHT22;12359;49.716;9.212;2023-06-10T09:00:30;31.50;99.90
24224;DHT22;12359;49.716;9.212;2023-06-10T09:02:57;31.50;99.90
24224;DHT22;12359;49.716;9.212;2023-06-10T09:05:23;31.60;99.90
24224;DHT22;12359;49.716;9.212;2023-06-10T09:07:51;31.30;99.90
24224;DHT22;12359;49.716;9.212;2023-06-10T09:10:17;31.10;99.90
24224;DHT22;12359;49.716;9.212;2023-06-10T09:12:43;30.50;99.90
24224;DHT22;12359;49.716;9.212;2023-06-10T09:15:10;30.40;99.90
24224;DHT22;12359;49.716;9.212;2023-06-10T09:17:38;30.70;99.90
24224;DHT22;12359;49.716;9.212;2023-06-10T09:20:06;30.80;99.90
24224;DHT22;12359;49.716;9.212;2023-06-10T09:22:33;31.00;99.90
24224;DHT22;12359;49.716;9.212;2023-06-10T09:25:09;30.50;99.90
24224;DHT22;12359;49.716;9.212;2023-06-10T09:27:49;30.20;99.90
24224;DHT22;12359;49.716;9.212;2023-06-10T09:30:30;30.40;99.90
24224;DHT22;12359;49.716;9.212;2023-06-10T09:33:09;31.10;99.90
24224;DHT22;12359;49.716;9.212;2023-06-10T09:35:35;31.80;99.90
24224;DHT22;12359;49.716;9.212;2023-06-10T09:38:01;32.30;99.90
24224;DHT22;12359;49.716;9.212;2023-06-10T09:40:28;32.10;99.90
24224;DHT22;12359;49.716;9.212;2023-06-10T09:42:58;32.10;99.90
24224;DHT22;12359;49.716;9.212;2023-06-10T09:45:30;32.00;99.90
24224;DHT22;12359;49.716;9.212;2023-06-10T09:47:59;32.00;99.90
24224;DHT22;12359;49.716;9.212;2023-06-10T09:50:24;31.70;99.90
24224;DHT22;12359;49.716;9.212;2023-06-10T09:52:51;31.20;99.90
24224;DHT22;12359;49.716;9.212;2023-06-10T09:55:17;31.60;99.90
24224;DHT22;12359;49.716;9.212;2023-06-10T09:57:43;31.60;99.90
24224;DHT22;12359;49.716;9.212;2023-06-10T10:00:14;31.40;99.90
24224;DHT22;12359;49.716;9.212;2023-06-10T10:02:48;31.50;99.90
24224;DHT22;12359;49.716;9.212;2023-06-10T10:05:18;31.90;99.90
24224;DHT22;12359;49.716;9.212;2023-06-10T10:07:45;32.40;99.90
24224;DHT22;12359;49.716;9.212;2023-06-10T10:10:12;32.40;99.90
24224;DHT22;12359;49.716;9.212;2023-06-10T10:12:39;32.50;99.90
24224;DHT22;12359;49.716;9.212;2023-06-10T10:15:09;32.70;99.90
24224;DHT22;12359;49.716;9.212;2023-06-10T10:17:42;32.80;99.90
24224;DHT22;12359;49.716;9.212;2023-06-10T10:20:11;32.30;99.90
24224;DHT22;12359;49.716;9.212;2023-06-10T10:22:39;32.30;99.90
24224;DHT22;12359;49.716;9.212;2023-06-10T10:25:16;31.20;99.90
24224;DHT22;12359;49.716;9.212;2023-06-10T10:27:52;31.40;99.90
24224;DHT22;12359;49.716;9.212;2023-06-10T10:30:21;31.50;99.90
24224;DHT22;12359;49.716;9.212;2023-06-10T10:33:10;31.60;99.90
24224;DHT22;12359;49.716;9.212;2023-06-10T10:35:38;31.80;99.90
24224;DHT22;12359;49.716;9.212;2023-06-10T10:38:05;32.20;99.90
24224;DHT22;12359;49.716;9.212;2023-06-10T10:40:32;32.50;99.90
24224;DHT22;12359;49.716;9.212;2023-06-10T10:42:59;32.90;99.90
24224;DHT22;12359;49.716;9.212;2023-06-10T10:45:27;33.00;99.90
24224;DHT22;12359;49.716;9.212;2023-06-10T10:47:54;33.10;99.90
24224;DHT22;12359;49.716;9.212;2023-06-10T10:50:23;32.50;99.90
24224;DHT22;12359;49.716;9.212;2023-06-10T10:53:01;32.20;99.90
24224;DHT22;12359;49.716;9.212;2023-06-10T10:55:27;32.60;99.90
24224;DHT22;12359;49.716;9.212;2023-06-10T10:58:04;32.90;99.90
24224;DHT22;12359;49.716;9.212;2023-06-10T11:00:37;33.20;99.90
24224;DHT22;12359;49.716;9.212;2023-06-10T11:03:13;32.90;99.90
24224;DHT22;12359;49.716;9.212;2023-06-10T11:05:42;32.70;99.90
24224;DHT22;12359;49.716;9.212;2023-06-10T11:08:14;32.70;99.90
24224;DHT22;12359;49.716;9.212;2023-06-10T11:10:42;32.30;99.90
24224;DHT22;12359;49.716;9.212;2023-06-10T11:13:19;31.60;99.90
24224;DHT22;12359;49.716;9.212;2023-06-10T11:15:47;31.40;99.90
24224;DHT22;12359;49.716;9.212;2023-06-10T11:18:29;30.70;99.90
24224;DHT22;12359;49.716;9.212;2023-06-10T11:20:58;30.60;99.90
24224;DHT22;12359;49.716;9.212;2023-06-10T11:33:57;31.90;99.90
24224;DHT22;12359;49.716;9.212;2023-06-10T11:36:24;31.90;99.90
24224;DHT22;12359;49.716;9.212;2023-06-10T11:38:55;31.40;99.90
24224;DHT22;12359;49.716;9.212;2023-06-10T11:41:21;31.30;99.90
24224;DHT22;12359;49.716;9.212;2023-06-10T11:43:47;31.60;99.90
24224;DHT22;12359;49.716;9.212;2023-06-10T11:46:14;32.10;99.90
24224;DHT22;12359;49.716;9.212;2023-06-10T11:48:48;31.90;99.90
24224;DHT22;12359;49.716;9.212;2023-06-10T11:51:13;31.40;99.90
24224;DHT22;12359;49.716;9.212;2023-06-10T11:53:39;30.90;99.90
24224;DHT22;12359;49.716;9.212;2023-06-10T11:56:05;30.60;99.90
24224;DHT22;12359;49.716;9.212;2023-06-10T11:58:30;30.80;99.90
24224;DHT22;12359;49.716;9.212;2023-06-10T12:00:56;31.10;99.90
24224;DHT22;12359;49.716;9.212;2023-06-10T12:03:23;30.90;99.90
24224;DHT22;12359;49.716;9.212;2023-06-10T12:08:20;31.30;99.90
24224;DHT22;12359;49.716;9.212;2023-06-10T12:10:47;31.50;99.90
24224;DHT22;12359;49.716;9.212;2023-06-10T12:13:13;31.80;99.90
24224;DHT22;12359;49.716;9.212;2023-06-10T12:15:38;31.80;99.90
24224;DHT22;12359;49.716;9.212;2023-06-10T12:18:04;31.80;99.90
24224;DHT22;12359;49.716;9.212;2023-06-10T12:20:31;31.80;99.90
24224;DHT22;12359;49.716;9.212;2023-06-10T12:23:00;31.50;99.90
24224;DHT22;12359;49.716;9.212;2023-06-10T12:25:33;31.40;99.90
24224;DHT22;12359;49.716;9.212;2023-06-10T12:27:59;31.20;99.90
24224;DHT22;12359;49.716;9.212;2023-06-10T12:30:26;31.10;99.90
24224;DHT22;12359;49.716;9.212;2023-06-10T12:32:53;31.20;99.90
24224;DHT22;12359;49.716;9.212;2023-06-10T12:35:21;31.20;99.90
24224;DHT22;12359;49.716;9.212;2023-06-10T12:40:29;31.60;99.90
24224;DHT22;12359;49.716;9.212;2023-06-10T12:42:55;31.50;99.90
24224;DHT22;12359;49.716;9.212;2023-06-10T12:45:37;31.30;99.90
24224;DHT22;12359;49.716;9.212;2023-06-10T12:48:16;31.40;99.90
24224;DHT22;12359;49.716;9.212;2023-06-10T12:50:43;31.70;99.90
24224;DHT22;12359;49.716;9.212;2023-06-10T12:53:10;31.70;99.90
24224;DHT22;12359;49.716;9.212;2023-06-10T12:55:39;31.20;99.90
24224;DHT22;12359;49.716;9.212;2023-06-10T12:58:05;31.00;99.90
24224;DHT22;12359;49.716;9.212;2023-06-10T13:00:31;30.80;99.90
24224;DHT22;12359;49.716;9.212;2023-06-10T13:02:59;30.50;99.90
24224;DHT22;12359;49.716;9.212;2023-06-10T13:05:26;30.60;99.90
24224;DHT22;12359;49.716;9.212;2023-06-10T13:07:52;30.50;99.90
24224;DHT22;12359;49.716;9.212;2023-06-10T13:10:17;30.60;99.90
24224;DHT22;12359;49.716;9.212;2023-06-10T13:12:44;31.10;99.90
24224;DHT22;12359;49.716;9.212;2023-06-10T13:15:10;31.40;99.90
24224;DHT22;12359;49.716;9.212;2023-06-10T13:17:37;31.70;99.90
24224;DHT22;12359;49.716;9.212;2023-06-10T13:20:06;31.90;99.90
24224;DHT22;12359;49.716;9.212;2023-06-10T13:22:33;31.60;99.90
24224;DHT22;12359;49.716;9.212;2023-06-10T13:25:01;31.10;99.90
24224;DHT22;12359;49.716;9.212;2023-06-10T13:27:28;31.00;99.90
24224;DHT22;12359;49.716;9.212;2023-06-10T13:29:54;31.10;99.90
24224;DHT22;12359;49.716;9.212;2023-06-10T13:32:20;31.10;99.90
24224;DHT22;12359;49.716;9.212;2023-06-10T13:34:46;30.60;99.90
24224;DHT22;12359;49.716;9.212;2023-06-10T13:37:12;30.20;99.90
24224;DHT22;12359;49.716;9.212;2023-06-10T13:39:41;30.20;99.90
24224;DHT22;12359;49.716;9.212;2023-06-10T13:42:06;30.50;99.90
24224;DHT22;12359;49.716;9.212;2023-06-10T13:44:33;30.80;99.90
24224;DHT22;12359;49.716;9.212;2023-06-10T13:47:04;31.00;99.90
24224;DHT22;12359;49.716;9.212;2023-06-10T13:49:30;31.00;99.90
24224;DHT22;12359;49.716;9.212;2023-06-10T13:51:56;30.70;99.90
24224;DHT22;12359;49.716;9.212;2023-06-10T13:54:22;30.50;99.90
24224;DHT22;12359;49.716;9.212;2023-06-10T13:56:48;30.70;99.90
24224;DHT22;12359;49.716;9.212;2023-06-10T13:59:13;30.90;99.90
24224;DHT22;12359;49.716;9.212;2023-06-10T14:01:39;31.00;99.90
24224;DHT22;12359;49.716;9.212;2023-06-10T14:04:06;31.10;99.90
24224;DHT22;12359;49.716;9.212;2023-06-10T14:06:32;31.20;99.90
24224;DHT22;12359;49.716;9.212;2023-06-10T14:08:59;31.30;99.90
24224;DHT22;12359;49.716;9.212;2023-06-10T14:11:25;31.50;99.90
24224;DHT22;12359;49.716;9.212;2023-06-10T14:13:50;31.60;99.90
24224;DHT22;12359;49.716;9.212;2023-06-10T14:16:16;31.50;99.90
24224;DHT22;12359;49.716;9.212;2023-06-10T14:18:42;31.40;99.90
24224;DHT22;12359;49.716;9.212;2023-06-10T14:21:08;31.50;99.90
24224;DHT22;12359;49.716;9.212;2023-06-10T14:23:33;31.60;99.90
24224;DHT22;12359;49.716;9.212;2023-06-10T14:25:59;31.60;99.90
24224;DHT22;12359;49.716;9.212;2023-06-10T14:28:25;31.70;99.90
24224;DHT22;12359;49.716;9.212;2023-06-10T14:30:53;31.70;99.90
24224;DHT22;12359;49.716;9.212;2023-06-10T14:33:18;31.60;99.90
24224;DHT22;12359;49.716;9.212;2023-06-10T14:35:44;31.10;99.90
24224;DHT22;12359;49.716;9.212;2023-06-10T14:38:10;30.80;99.90
24224;DHT22;12359;49.716;9.212;2023-06-10T14:40:35;30.60;99.90
24224;DHT22;12359;49.716;9.212;2023-06-10T14:43:01;30.60;99.90
24224;DHT22;12359;49.716;9.212;2023-06-10T14:45:29;30.70;99.90
24224;DHT22;12359;49.716;9.212;2023-06-10T14:47:55;30.70;99.90
24224;DHT22;12359;49.716;9.212;2023-06-10T14:50:21;30.40;99.90
24224;DHT22;12359;49.716;9.212;2023-06-10T14:52:46;30.20;99.90
24224;DHT22;12359;49.716;9.212;2023-06-10T14:55:12;30.10;99.90
24224;DHT22;12359;49.716;9.212;2023-06-10T14:57:38;30.10;99.90
24224;DHT22;12359;49.716;9.212;2023-06-10T15:00:04;30.10;99.90
24224;DHT22;12359;49.716;9.212;2023-06-10T15:02:31;30.20;99.90
24224;DHT22;12359;49.716;9.212;2023-06-10T15:04:56;30.40;99.90
24224;DHT22;12359;49.716;9.212;2023-06-10T15:07:22;30.40;99.90
24224;DHT22;12359;49.716;9.212;2023-06-10T15:09:48;30.40;99.90
24224;DHT22;12359;49.716;9.212;2023-06-10T15:12:13;30.30;99.90
24224;DHT22;12359;49.716;9.212;2023-06-10T15:14:39;30.20;99.90
24224;DHT22;12359;49.716;9.212;2023-06-10T15:17:05;30.20;99.90
24224;DHT22;12359;49.716;9.212;2023-06-10T15:19:30;30.40;99.90
24224;DHT22;12359;49.716;9.212;2023-06-10T15:21:56;30.50;99.90
24224;DHT22;12359;49.716;9.212;2023-06-10T15:24:22;30.50;99.90
24224;DHT22;12359;49.716;9.212;2023-06-10T15:26:47;30.60;99.90
24224;DHT22;12359;49.716;9.212;2023-06-10T15:29:13;30.70;99.90
24224;DHT22;12359;49.716;9.212;2023-06-10T15:31:39;30.80;99.90
24224;DHT22;12359;49.716;9.212;2023-06-10T15:34:04;30.90;99.90
24224;DHT22;12359;49.716;9.212;2023-06-10T15:36:32;30.90;99.90
24224;DHT22;12359;49.716;9.212;2023-06-10T15:39:02;30.70;99.90
24224;DHT22;12359;49.716;9.212;2023-06-10T15:41:28;30.40;99.90
24224;DHT22;12359;49.716;9.212;2023-06-10T15:43:55;30.10;99.90
24224;DHT22;12359;49.716;9.212;2023-06-10T15:46:20;29.70;99.90
24224;DHT22;12359;49.716;9.212;2023-06-10T15:48:46;29.50;99.90
24224;DHT22;12359;49.716;9.212;2023-06-10T15:51:12;29.30;99.90
24224;DHT22;12359;49.716;9.212;2023-06-10T15:53:38;29.30;99.90
24224;DHT22;12359;49.716;9.212;2023-06-10T15:56:03;29.30;99.90
24224;DHT22;12359;49.716;9.212;2023-06-10T15:58:29;29.30;99.90
24224;DHT22;12359;49.716;9.212;2023-06-10T16:00:55;29.30;99.90
24224;DHT22;12359;49.716;9.212;2023-06-10T16:03:21;29.40;99.90